Time;durP1;ratioP1;P1;durP2;ratioP2;P2;SDS_P1;SDS_P2;PMS_P1;PMS_P2;Temp;Humidity;BMP_temperature;BMP_pressure;BME280_temperature;BME280_humidity;BME280_pressure;Samples;Min_cycle;Max_cycle;Signal;HPM_P1;HPM_P2
2021/07/30 00:00:13;;;;;;;15.32;7.22;;;;;;;22.29;76.32;98945.01;1728597;80;21776;-54
2021/07/30 00:02:39;;;;;;;7.67;5.40;;;;;;;22.26;76.23;98941.56;1729059;80;21180;-54
2021/07/30 00:05:07;;;;;;;12.60;4.78;;;;;;;22.23;76.14;98931.44;1731816;80;21077;-54
2021/07/30 00:07:34;;;;;;;5.85;5.25;;;;;;;22.20;76.17;98933.16;1732887;80;21050;-54
2021/07/30 00:10:00;;;;;;;13.58;5.85;;;;;;;22.18;76.16;98930.59;1728888;80;21146;-54
2021/07/30 00:12:27;;;;;;;8.15;5.12;;;;;;;22.16;76.10;98924.91;1705887;80;21069;-54
2021/07/30 00:14:53;;;;;;;18.40;5.90;;;;;;;22.14;76.13;98925.59;1730542;80;21772;-53
2021/07/30 00:17:20;;;;;;;12.25;5.20;;;;;;;22.11;76.12;98923.20;1730256;80;21058;-54
2021/07/30 00:19:46;;;;;;;11.25;5.22;;;;;;;22.09;76.12;98926.61;1693792;82;21081;-54
2021/07/30 00:22:12;;;;;;;15.75;5.90;;;;;;;22.07;76.04;98921.80;1680979;83;21151;-54
2021/07/30 00:24:39;;;;;;;10.82;5.42;;;;;;;22.05;76.01;98913.74;1681215;83;21097;-54
2021/07/30 00:27:05;;;;;;;9.85;5.08;;;;;;;22.04;75.96;98917.50;1671450;84;21125;-54
2021/07/30 00:29:32;;;;;;;5.70;3.65;;;;;;;22.02;75.93;98918.72;1628368;86;21168;-53
2021/07/30 00:31:58;;;;;;;4.78;3.02;;;;;;;21.98;75.78;98915.95;1652808;84;21085;-54
2021/07/30 00:34:25;;;;;;;3.80;3.42;;;;;;;21.95;75.69;98904.77;1645538;85;21392;-54
2021/07/30 00:36:53;;;;;;;2.35;2.20;;;;;;;21.93;75.59;98905.98;1689591;83;21098;-54
2021/07/30 00:39:19;;;;;;;2.62;2.42;;;;;;;21.90;75.49;98898.44;1687330;83;21096;-54
2021/07/30 00:41:46;;;;;;;2.30;2.05;;;;;;;21.90;75.43;98910.77;1687656;83;21125;-54
2021/07/30 00:44:12;;;;;;;3.12;2.85;;;;;;;21.88;75.37;98902.35;1689852;83;21414;-54
2021/07/30 00:46:43;;;;;;;2.67;2.35;;;;;;;21.86;75.36;98904.42;1671314;84;21685;-54
2021/07/30 00:49:14;;;;;;;3.08;2.70;;;;;;;21.83;75.36;98898.75;1654042;84;21126;-54
2021/07/30 00:51:50;;;;;;;3.20;3.00;;;;;;;;;;1630905;86;21429;-55
2021/07/30 00:54:21;;;;;;;2.58;1.80;;;;;;;21.86;75.25;98903.87;1687680;83;21089;-54
2021/07/30 00:56:54;;;;;;;3.60;2.25;;;;;;;21.85;75.18;98899.45;1608349;84;22053;-55
2021/07/30 00:59:25;;;;;;;3.30;2.52;;;;;;;21.85;75.13;98903.56;1689737;83;21131;-55
2021/07/30 01:01:57;;;;;;;2.85;2.60;;;;;;;21.84;75.12;98899.11;1689626;83;21000;-55
2021/07/30 01:04:28;;;;;;;2.40;2.20;;;;;;;21.83;75.06;98900.12;1664209;83;21591;-54
2021/07/30 01:07:06;;;;;;;4.60;2.55;;;;;;;21.81;75.04;98896.69;1693643;83;20971;-55
2021/07/30 01:09:41;;;;;;;4.05;2.60;;;;;;;21.79;74.95;98897.36;1675537;84;21400;-55
2021/07/30 01:12:11;;;;;;;4.67;2.87;;;;;;;21.78;74.98;98898.88;1665539;83;21155;-54
2021/07/30 01:14:44;;;;;;;2.90;2.70;;;;;;;21.75;75.00;98891.02;1626157;84;21113;-54
2021/07/30 01:17:12;;;;;;;3.33;2.25;;;;;;;21.74;75.01;98893.41;1695574;83;21454;-55
2021/07/30 01:19:45;;;;;;;2.33;2.15;;;;;;;21.70;74.99;98895.61;1687358;83;21070;-54
2021/07/30 01:22:27;;;;;;;3.20;2.90;;;;;;;21.69;75.00;98902.64;1691135;83;20958;-54
2021/07/30 01:24:55;;;;;;;2.60;2.40;;;;;;;21.67;75.00;98903.31;1718852;80;21825;-54
2021/07/30 01:27:27;;;;;;;3.67;2.80;;;;;;;21.64;75.00;98905.00;1713627;81;20895;-54
2021/07/30 01:30:00;;;;;;;3.15;2.95;;;;;;;21.62;75.02;98902.93;1716597;81;21442;-54
2021/07/30 01:32:36;;;;;;;3.87;2.65;;;;;;;21.60;75.07;98902.26;1734999;80;20950;-54
2021/07/30 01:35:03;;;;;;;2.47;2.27;;;;;;;21.58;75.08;98913.38;1737771;80;21023;-54
2021/07/30 01:37:31;;;;;;;2.85;2.10;;;;;;;21.56;75.11;98916.78;1738185;80;21459;-54
2021/07/30 01:39:58;;;;;;;5.92;3.95;;;;;;;21.55;75.11;98917.80;1735360;80;20961;-55
2021/07/30 01:42:24;;;;;;;5.67;2.47;;;;;;;21.52;75.12;98918.14;1742448;80;21420;-54
2021/07/30 01:44:53;;;;;;;2.33;2.12;;;;;;;21.50;75.14;98922.91;1699993;82;21051;-54
2021/07/30 01:47:20;;;;;;;5.08;2.67;;;;;;;21.47;75.12;98920.48;1681969;83;20962;-55
2021/07/30 01:49:48;;;;;;;3.65;2.25;;;;;;;21.42;75.17;98925.10;1682355;83;21078;-54
2021/07/30 01:52:14;;;;;;;5.17;2.42;;;;;;;21.38;75.12;98923.70;1696776;82;20999;-54
2021/07/30 01:54:41;;;;;;;3.45;2.22;;;;;;;21.36;75.14;98923.50;1682804;83;20915;-54
2021/07/30 01:57:07;;;;;;;3.95;2.52;;;;;;;21.32;75.08;98928.45;1683474;83;20959;-52
2021/07/30 01:59:33;;;;;;;3.70;2.25;;;;;;;21.28;74.82;98933.03;1683468;83;20975;-51
2021/07/30 02:01:59;;;;;;;2.70;2.50;;;;;;;21.23;74.73;98930.79;1696697;83;21107;-54
2021/07/30 02:04:26;;;;;;;4.15;3.25;;;;;;;21.15;74.64;98924.73;1669903;84;21103;-54
2021/07/30 02:06:52;;;;;;;3.05;2.60;;;;;;;21.09;74.78;98929.48;1697949;82;21755;-52
2021/07/30 02:09:19;;;;;;;5.05;2.27;;;;;;;21.03;74.75;98932.84;1668360;84;21531;-52
2021/07/30 02:11:50;;;;;;;3.62;2.25;;;;;;;20.99;74.93;98938.80;1699145;82;21073;-52
2021/07/30 02:14:17;;;;;;;2.95;2.67;;;;;;;20.95;75.04;98945.59;1693550;82;21165;-52
2021/07/30 02:16:48;;;;;;;2.08;1.98;;;;;;;20.90;75.18;98932.91;1697212;83;21129;-53
2021/07/30 02:19:21;;;;;;;2.15;1.65;;;;;;;20.85;75.25;98933.87;1699235;82;21000;-51
2021/07/30 02:21:46;;;;;;;4.60;2.05;;;;;;;20.82;75.37;98938.32;1680495;83;21426;-54
2021/07/30 02:24:12;;;;;;;3.33;2.42;;;;;;;20.78;75.55;98937.26;1681695;83;21153;-52
2021/07/30 02:26:40;;;;;;;2.92;2.22;;;;;;;20.77;75.71;98937.41;1725495;81;22304;-54
2021/07/30 02:29:06;;;;;;;2.47;2.20;;;;;;;20.76;75.87;98947.48;1722463;81;21056;-54
2021/07/30 02:31:33;;;;;;;2.75;2.25;;;;;;;20.76;75.73;98952.95;1726839;81;21037;-54
2021/07/30 02:33:59;;;;;;;2.98;2.10;;;;;;;20.74;75.65;98951.42;1728957;81;21045;-53
2021/07/30 02:36:25;;;;;;;2.22;2.08;;;;;;;20.72;75.57;98954.31;1723932;81;21463;-55
2021/07/30 02:38:52;;;;;;;4.45;2.62;;;;;;;20.72;75.84;98961.65;1725841;81;21560;-51
2021/07/30 02:41:19;;;;;;;3.37;2.50;;;;;;;20.71;76.06;98959.42;1723486;81;21692;-52
2021/07/30 02:43:46;;;;;;;3.05;2.55;;;;;;;20.71;76.15;98955.32;1726348;81;21676;-51
2021/07/30 02:46:14;;;;;;;2.75;1.50;;;;;;;20.70;76.16;98954.10;1727159;81;20983;-54
2021/07/30 02:48:41;;;;;;;1.55;1.42;;;;;;;20.70;75.97;98964.53;1724769;81;20934;-54
2021/07/30 02:51:07;;;;;;;2.87;2.77;;;;;;;20.70;75.71;98965.05;1725619;81;20994;-54
2021/07/30 02:53:34;;;;;;;3.08;2.77;;;;;;;20.67;75.51;98967.57;1725421;81;21787;-54
2021/07/30 02:56:02;;;;;;;3.25;2.83;;;;;;;20.63;75.50;98969.42;1725558;81;21532;-52
2021/07/30 02:58:30;;;;;;;2.08;1.87;;;;;;;20.59;75.62;98970.23;1724385;81;21063;-52
2021/07/30 03:00:58;;;;;;;4.53;2.77;;;;;;;20.59;75.68;98978.94;1728281;81;21069;-52
2021/07/30 03:03:24;;;;;;;6.03;2.35;;;;;;;20.58;75.86;98981.35;1726647;81;21088;-53
2021/07/30 03:05:50;;;;;;;3.10;2.72;;;;;;;20.58;76.09;98982.72;1726653;81;21077;-51
2021/07/30 03:08:17;;;;;;;2.65;2.40;;;;;;;20.60;76.26;98988.86;1725413;81;21035;-53
2021/07/30 03:10:46;;;;;;;2.37;2.15;;;;;;;20.62;76.31;98993.67;1727238;81;20958;-52
2021/07/30 03:13:13;;;;;;;3.12;2.22;;;;;;;20.63;76.31;98991.30;1725352;81;21352;-51
2021/07/30 03:15:39;;;;;;;2.42;2.30;;;;;;;20.65;76.30;98994.23;1723419;81;21845;-51
2021/07/30 03:18:07;;;;;;;3.80;2.08;;;;;;;20.66;76.34;98993.73;1723493;81;21641;-50
2021/07/30 03:20:33;;;;;;;3.02;2.72;;;;;;;20.67;76.48;99000.38;1725850;81;21476;-53
2021/07/30 03:22:59;;;;;;;2.15;1.90;;;;;;;20.69;76.59;99005.20;1725881;81;21108;-51
2021/07/30 03:25:27;;;;;;;2.47;2.37;;;;;;;20.73;76.70;99007.12;1726681;81;21711;-51
2021/07/30 03:27:54;;;;;;;3.87;3.62;;;;;;;20.73;76.78;98998.42;1723000;81;21138;-52
2021/07/30 03:30:20;;;;;;;3.05;2.70;;;;;;;20.76;76.89;99003.55;1726153;81;21366;-53
2021/07/30 03:32:48;;;;;;;4.17;2.65;;;;;;;20.79;76.96;99007.86;1732380;81;21066;-53
2021/07/30 03:35:14;;;;;;;3.27;2.90;;;;;;;20.81;77.07;99017.28;1727566;81;21465;-53
2021/07/30 03:37:40;;;;;;;3.12;2.92;;;;;;;20.83;77.17;99022.95;1725809;81;21097;-52
2021/07/30 03:40:08;;;;;;;2.70;2.33;;;;;;;20.84;77.18;99027.38;1723833;81;21120;-54
2021/07/30 03:42:35;;;;;;;3.60;2.90;;;;;;;20.86;77.19;99023.13;1725719;81;21507;-54
2021/07/30 03:45:01;;;;;;;3.70;3.25;;;;;;;20.90;77.21;99028.15;1724320;81;21606;-52
2021/07/30 03:47:27;;;;;;;5.05;4.60;;;;;;;20.93;77.19;99034.66;1722660;81;21731;-53
2021/07/30 03:49:54;;;;;;;3.20;3.00;;;;;;;20.97;77.15;99035.21;1723071;81;21092;-53
2021/07/30 03:52:20;;;;;;;2.85;2.65;;;;;;;21.01;77.12;99036.09;1726391;81;21118;-52
2021/07/30 03:54:47;;;;;;;3.52;3.22;;;;;;;21.07;77.01;99041.47;1724013;81;21095;-52
2021/07/30 03:57:13;;;;;;;3.22;2.87;;;;;;;21.10;76.93;99039.26;1725039;81;21104;-53
2021/07/30 03:59:40;;;;;;;2.65;2.45;;;;;;;21.15;76.94;99045.13;1725311;81;20967;-52
2021/07/30 04:02:06;;;;;;;2.95;2.75;;;;;;;21.22;76.84;99048.63;1724249;81;20920;-54
2021/07/30 04:04:34;;;;;;;3.67;3.47;;;;;;;21.27;76.73;99056.70;1730482;81;22421;-53
2021/07/30 04:07:01;;;;;;;4.03;3.27;;;;;;;21.33;76.56;99058.83;1691767;82;20970;-51
2021/07/30 04:09:27;;;;;;;4.40;3.10;;;;;;;21.38;76.40;99052.87;1693936;82;20950;-52
2021/07/30 04:11:54;;;;;;;4.20;2.87;;;;;;;21.42;76.25;99055.65;1694620;83;20896;-52
2021/07/30 04:14:20;;;;;;;4.40;2.92;;;;;;;21.45;76.23;99057.54;1729782;81;20903;-53
2021/07/30 04:16:46;;;;;;;7.08;3.40;;;;;;;21.52;76.16;99055.87;1729202;81;21794;-52
2021/07/30 04:19:13;;;;;;;2.67;2.47;;;;;;;21.60;76.06;99059.72;1723908;81;21069;-53
2021/07/30 04:21:39;;;;;;;3.15;2.95;;;;;;;21.66;75.96;99060.44;1725944;82;21035;-54
2021/07/30 04:24:05;;;;;;;4.80;2.55;;;;;;;21.71;75.76;99067.14;1720894;81;21431;-54
2021/07/30 04:26:32;;;;;;;2.52;2.33;;;;;;;21.77;75.52;99063.78;1720899;81;21601;-52
2021/07/30 04:28:58;;;;;;;5.37;3.15;;;;;;;21.84;75.30;99062.61;1727259;81;21153;-52
2021/07/30 04:31:25;;;;;;;3.17;2.98;;;;;;;21.92;74.91;99061.30;1723896;81;21070;-53
2021/07/30 04:33:52;;;;;;;4.70;3.50;;;;;;;21.98;74.62;99055.69;1724512;81;21099;-53
2021/07/30 04:36:18;;;;;;;2.95;2.65;;;;;;;22.03;74.39;99061.02;1722497;81;21499;-53
2021/07/30 04:38:45;;;;;;;3.42;3.15;;;;;;;22.09;74.17;99064.50;1726040;81;21040;-52
2021/07/30 04:41:11;;;;;;;2.80;2.60;;;;;;;22.14;73.93;99059.38;1723681;81;21793;-52
2021/07/30 04:43:38;;;;;;;5.08;2.98;;;;;;;22.22;73.84;99062.66;1723993;81;22362;-54
2021/07/30 04:46:04;;;;;;;2.33;2.12;;;;;;;22.28;73.33;99065.28;1723942;81;21836;-53
2021/07/30 04:48:31;;;;;;;4.75;3.15;;;;;;;22.34;73.03;99063.23;1722056;81;21069;-54
2021/07/30 04:51:02;;;;;;;2.55;2.35;;;;;;;22.39;73.27;99063.59;1723441;81;21124;-52
2021/07/30 04:53:29;;;;;;;2.90;2.27;;;;;;;22.45;73.00;99061.07;1723590;81;21073;-54
2021/07/30 04:55:55;;;;;;;2.67;2.47;;;;;;;22.52;72.42;99063.48;1723570;81;21165;-54
2021/07/30 04:58:21;;;;;;;2.72;2.52;;;;;;;22.60;72.29;99061.28;1726334;81;21075;-52
2021/07/30 05:00:48;;;;;;;3.00;2.22;;;;;;;22.65;72.14;99063.86;1721853;81;21256;-53
2021/07/30 05:03:14;;;;;;;3.70;3.17;;;;;;;22.71;71.60;99065.09;1725716;81;21534;-52
2021/07/30 05:05:40;;;;;;;3.00;2.70;;;;;;;22.78;71.41;99065.31;1722865;81;21106;-53
2021/07/30 05:08:07;;;;;;;2.85;2.52;;;;;;;22.86;71.12;99074.41;1722834;81;21074;-52
2021/07/30 05:10:34;;;;;;;1.75;1.60;;;;;;;22.93;70.88;99064.48;1725563;81;21031;-52
2021/07/30 05:13:00;;;;;;;2.10;2.00;;;;;;;22.99;70.76;99061.56;1730988;81;21053;-52
2021/07/30 05:15:27;;;;;;;3.05;2.85;;;;;;;23.04;70.08;99061.06;1724878;81;21544;-54
2021/07/30 05:17:53;;;;;;;2.72;2.55;;;;;;;23.10;70.02;99065.87;1726070;81;21162;-53
2021/07/30 05:20:19;;;;;;;3.45;3.25;;;;;;;23.14;69.90;99069.46;1724634;81;21042;-52
2021/07/30 05:22:46;;;;;;;2.77;2.58;;;;;;;23.20;69.58;99067.43;1689800;82;21595;-53
2021/07/30 05:25:12;;;;;;;3.15;3.00;;;;;;;23.25;69.36;99071.02;1663497;84;21495;-55
2021/07/30 05:27:39;;;;;;;2.87;2.75;;;;;;;23.28;69.20;99072.92;1725033;81;21148;-55
2021/07/30 05:30:07;;;;;;;4.80;3.12;;;;;;;23.32;68.97;99076.17;1724938;81;21787;-54
2021/07/30 05:32:34;;;;;;;3.65;2.77;;;;;;;23.35;69.01;99071.72;1687209;82;21126;-53
2021/07/30 05:35:01;;;;;;;4.62;3.65;;;;;;;23.40;69.09;99070.67;1727448;81;21318;-53
2021/07/30 05:37:27;;;;;;;2.60;2.50;;;;;;;23.47;68.60;99074.48;1726370;81;21070;-54
2021/07/30 05:39:54;;;;;;;5.67;2.83;;;;;;;23.55;68.60;99075.88;1685038;82;21560;-55
2021/07/30 05:42:21;;;;;;;4.03;3.72;;;;;;;23.60;68.46;99077.58;1663527;84;21119;-53
2021/07/30 05:44:49;;;;;;;3.30;3.10;;;;;;;23.66;68.29;99081.52;1660824;84;21576;-52
2021/07/30 05:47:15;;;;;;;2.83;2.62;;;;;;;23.69;67.92;99079.29;1726081;81;21073;-53
2021/07/30 05:49:41;;;;;;;2.52;2.33;;;;;;;23.71;67.96;99084.10;1728474;81;21595;-53
2021/07/30 05:52:08;;;;;;;2.87;2.50;;;;;;;23.73;67.85;99083.94;1710612;81;21652;-55
2021/07/30 05:54:35;;;;;;;2.72;2.52;;;;;;;23.75;67.32;99083.22;1727643;81;21465;-51
2021/07/30 05:57:01;;;;;;;2.47;2.33;;;;;;;23.78;67.45;99084.77;1724917;81;21067;-53
2021/07/30 05:59:28;;;;;;;3.22;2.98;;;;;;;23.79;66.96;99083.75;1724939;81;21590;-53
2021/07/30 06:01:54;;;;;;;3.00;2.80;;;;;;;23.81;67.07;99084.44;1728409;81;21035;-55
2021/07/30 06:04:20;;;;;;;3.05;2.85;;;;;;;23.86;67.17;99091.11;1728401;81;21660;-52
2021/07/30 06:06:47;;;;;;;4.37;2.83;;;;;;;23.90;67.74;99085.63;1692367;83;21114;-52
2021/07/30 06:09:14;;;;;;;4.90;2.95;;;;;;;23.94;67.04;99081.99;1728457;81;21058;-53
2021/07/30 06:11:40;;;;;;;2.95;2.70;;;;;;;23.98;66.67;99081.48;1725614;81;21025;-53
2021/07/30 06:14:06;;;;;;;3.17;2.87;;;;;;;24.03;66.78;99078.19;1727307;81;21065;-53
2021/07/30 06:16:33;;;;;;;3.72;3.42;;;;;;;24.08;66.99;99075.77;1726945;81;21072;-51
2021/07/30 06:19:00;;;;;;;4.72;2.83;;;;;;;24.15;66.68;99078.17;1727218;82;23155;-54
2021/07/30 06:21:26;;;;;;;7.58;2.80;;;;;;;24.22;66.20;99079.73;1724805;81;21404;-52
2021/07/30 06:23:52;;;;;;;2.87;2.72;;;;;;;24.24;65.94;99081.27;1725354;81;21615;-55
2021/07/30 06:26:19;;;;;;;4.90;3.00;;;;;;;24.25;65.09;99082.10;1726567;80;21068;-54
2021/07/30 06:28:45;;;;;;;3.25;3.05;;;;;;;24.24;65.05;99070.79;1727350;81;21078;-52
2021/07/30 06:31:11;;;;;;;2.50;2.33;;;;;;;24.24;64.43;99072.16;1724499;81;23336;-53
2021/07/30 06:33:38;;;;;;;2.15;1.92;;;;;;;24.25;64.98;99071.10;1727083;81;21068;-54
2021/07/30 06:36:04;;;;;;;2.85;2.62;;;;;;;24.30;65.09;99070.07;1687915;83;21060;-54
2021/07/30 06:38:31;;;;;;;4.35;2.92;;;;;;;24.37;64.56;99065.56;1659158;84;21071;-54
2021/07/30 06:40:57;;;;;;;3.17;2.98;;;;;;;24.42;63.80;99059.86;1726063;81;20988;-54
2021/07/30 06:43:24;;;;;;;5.45;3.00;;;;;;;24.49;63.68;99065.53;1730215;81;21437;-55
2021/07/30 06:45:50;;;;;;;5.40;3.33;;;;;;;24.57;63.89;99061.88;1730535;81;21433;-53
2021/07/30 06:48:16;;;;;;;3.05;2.72;;;;;;;24.62;63.71;99060.80;1726632;81;20940;-54
2021/07/30 06:50:44;;;;;;;2.72;2.62;;;;;;;24.64;63.09;99062.34;1730552;81;20942;-52
2021/07/30 06:53:11;;;;;;;3.87;3.33;;;;;;;24.66;62.57;99055.30;1729589;81;20904;-52
2021/07/30 06:55:38;;;;;;;4.28;2.47;;;;;;;24.67;62.37;99065.27;1729821;81;21720;-56
2021/07/30 06:58:04;;;;;;;3.05;2.50;;;;;;;24.66;62.87;99056.67;1727703;81;21413;-53
2021/07/30 07:00:30;;;;;;;2.25;1.95;;;;;;;24.70;63.71;99057.49;1727164;81;21387;-53
2021/07/30 07:02:56;;;;;;;3.47;2.25;;;;;;;24.78;63.24;99059.34;1687100;82;21134;-55
2021/07/30 07:05:23;;;;;;;1.85;1.55;;;;;;;24.86;62.91;99056.02;1689262;82;21138;-55
2021/07/30 07:07:49;;;;;;;2.52;2.30;;;;;;;24.96;62.60;99053.06;1725221;81;21175;-53
2021/07/30 07:10:16;;;;;;;2.60;2.40;;;;;;;25.08;61.58;99054.38;1725421;81;21088;-56
2021/07/30 07:12:44;;;;;;;2.27;2.17;;;;;;;25.18;61.26;99053.58;1724136;81;21034;-51
2021/07/30 07:15:11;;;;;;;1.90;1.80;;;;;;;25.25;60.57;99057.86;1725282;81;21137;-54
2021/07/30 07:17:38;;;;;;;3.70;2.27;;;;;;;25.30;59.42;99048.51;1725108;81;21065;-54
2021/07/30 07:20:06;;;;;;;1.62;1.47;;;;;;;25.36;59.33;99059.30;1727360;81;21523;-53
2021/07/30 07:22:33;;;;;;;15.15;8.78;;;;;;;25.38;58.50;99059.45;1727682;81;20974;-53
2021/07/30 07:24:59;;;;;;;16.30;9.00;;;;;;;25.43;57.61;99062.53;1729232;81;20930;-54
2021/07/30 07:27:25;;;;;;;7.22;3.72;;;;;;;25.47;57.25;99056.97;1730122;80;21603;-53
2021/07/30 07:29:52;;;;;;;9.13;6.17;;;;;;;25.52;57.13;99068.83;1726675;80;20930;-53
2021/07/30 07:32:18;;;;;;;1.50;1.40;;;;;;;25.58;57.58;99065.33;1733556;80;21088;-52
2021/07/30 07:34:45;;;;;;;1.85;1.75;;;;;;;25.62;56.97;99063.41;1725966;81;21033;-56
2021/07/30 07:37:11;;;;;;;1.70;1.60;;;;;;;25.67;57.02;99071.65;1733726;80;21492;-53
2021/07/30 07:39:38;;;;;;;1.50;1.40;;;;;;;25.66;56.34;99068.03;1730287;80;21121;-53
2021/07/30 07:42:04;;;;;;;3.58;1.55;;;;;;;25.67;56.50;99064.23;1729978;80;21093;-53
2021/07/30 07:44:30;;;;;;;2.08;1.82;;;;;;;25.74;56.61;99068.48;1728081;81;21744;-53
2021/07/30 07:46:58;;;;;;;1.60;1.50;;;;;;;25.80;55.10;99065.82;1731404;80;21102;-52
2021/07/30 07:49:25;;;;;;;2.27;2.17;;;;;;;25.85;55.29;99068.89;1726754;80;21120;-54
2021/07/30 07:51:52;;;;;;;2.40;2.20;;;;;;;25.92;55.80;99070.36;1734515;80;21066;-53
2021/07/30 07:54:18;;;;;;;2.45;2.35;;;;;;;25.97;56.43;99069.27;1732404;80;21120;-55
2021/07/30 07:56:44;;;;;;;2.67;1.60;;;;;;;26.05;56.58;99060.91;1732802;80;22220;-52
2021/07/30 07:59:11;;;;;;;1.95;1.85;;;;;;;26.14;56.74;99063.05;1730472;80;21432;-55
2021/07/30 08:01:38;;;;;;;1.95;1.72;;;;;;;26.22;55.95;99067.95;1729010;80;22668;-56
2021/07/30 08:04:06;;;;;;;1.80;1.70;;;;;;;26.31;55.25;99069.59;1705394;80;21461;-53
2021/07/30 08:06:32;;;;;;;3.30;2.12;;;;;;;26.39;54.21;99068.64;1731493;80;21617;-52
2021/07/30 08:08:59;;;;;;;2.52;1.92;;;;;;;26.44;53.60;99070.84;1726749;80;21154;-53
2021/07/30 08:11:26;;;;;;;1.67;1.57;;;;;;;26.47;52.86;99068.53;1732673;80;21475;-53
2021/07/30 08:13:54;;;;;;;1.65;1.55;;;;;;;26.47;53.16;99074.58;1730366;80;21064;-54
2021/07/30 08:16:25;;;;;;;1.82;1.55;;;;;;;26.51;52.76;99075.40;1730793;80;21113;-53
2021/07/30 08:18:53;;;;;;;2.47;1.90;;;;;;;26.52;52.97;99067.98;1734350;80;20932;-53
2021/07/30 08:21:21;;;;;;;1.50;1.37;;;;;;;26.57;53.22;99069.63;1729375;80;21073;-54
2021/07/30 08:23:49;;;;;;;1.92;1.80;;;;;;;26.63;53.05;99074.36;1728951;80;21935;-54
2021/07/30 08:26:16;;;;;;;2.05;1.75;;;;;;;26.66;52.80;99075.37;1691765;82;22326;-53
2021/07/30 08:28:43;;;;;;;2.12;1.67;;;;;;;26.73;53.63;99073.54;1681847;83;21595;-56
2021/07/30 08:31:09;;;;;;;2.58;1.55;;;;;;;26.81;53.08;99067.91;1670450;84;21101;-53
2021/07/30 08:33:36;;;;;;;1.60;1.50;;;;;;;26.89;53.74;99067.79;1732265;80;21104;-54
2021/07/30 08:36:05;;;;;;;1.50;1.40;;;;;;;27.01;53.00;99068.18;1733889;80;20939;-54
2021/07/30 08:41:20;;;;;;;1.40;1.30;;;;;;;27.20;51.43;99074.98;1846713;75;22343;-54
2021/07/30 08:43:53;;;;;;;1.52;1.42;;;;;;;27.21;50.19;99072.02;1849538;75;22029;-54
2021/07/30 08:46:26;;;;;;;3.58;1.25;;;;;;;27.21;50.19;99072.02;1847784;75;21509;-55
2021/07/30 08:48:54;;;;;;;1.95;1.60;;;;;;;27.20;50.80;99073.59;1845808;75;21605;-56
2021/07/30 08:51:21;;;;;;;1.40;1.30;;;;;;;27.21;50.66;99076.70;1845914;75;21460;-57
2021/07/30 08:53:48;;;;;;;1.55;1.45;;;;;;;27.24;50.43;99079.90;1849398;75;21408;-55
2021/07/30 08:56:19;;;;;;;1.55;1.45;;;;;;;27.26;50.93;99075.04;1847141;75;21554;-56
2021/07/30 08:58:46;;;;;;;1.37;1.10;;;;;;;27.30;51.10;99076.89;1845197;75;21104;-55
2021/07/30 09:01:14;;;;;;;1.57;1.20;;;;;;;27.32;50.30;99077.53;1849787;75;20979;-56
2021/07/30 09:03:45;;;;;;;1.30;1.20;;;;;;;27.30;50.21;99074.99;1844088;75;20981;-56
2021/07/30 09:06:20;;;;;;;1.27;1.00;;;;;;;27.32;50.11;99070.09;1850437;75;21643;-55
2021/07/30 09:09:07;;;;;;;2.25;1.32;;;;;;;27.36;49.17;99074.72;1848476;75;21653;-55
2021/07/30 09:11:39;;;;;;;1.25;1.20;;;;;;;27.43;48.35;99070.10;1849214;75;21112;-53
2021/07/30 09:14:09;;;;;;;1.40;1.30;;;;;;;27.53;47.83;99070.63;1845924;75;21468;-53
2021/07/30 09:16:52;;;;;;;1.07;1.00;;;;;;;27.49;46.80;99061.02;1848382;75;20874;-52
2021/07/30 09:19:19;;;;;;;1.20;1.10;;;;;;;27.41;46.55;99070.82;1851082;75;21021;-53
2021/07/30 09:21:45;;;;;;;1.32;1.22;;;;;;;27.25;47.54;99068.33;1846275;75;21966;-53
2021/07/30 09:24:15;;;;;;;4.15;1.30;;;;;;;27.17;48.46;99081.74;1845689;75;21692;-56
2021/07/30 09:26:50;;;;;;;3.33;1.17;;;;;;;27.07;48.29;99075.15;1845942;75;21088;-54
2021/07/30 09:29:20;;;;;;;1.32;1.10;;;;;;;27.00;48.41;99072.84;1847699;76;20911;-55
2021/07/30 09:31:49;;;;;;;3.60;1.10;;;;;;;26.98;48.35;99068.56;1837577;75;21469;-54
2021/07/30 09:34:24;;;;;;;1.10;1.00;;;;;;;26.97;48.88;99070.46;1817819;77;21121;-53
2021/07/30 09:37:01;;;;;;;1.82;1.42;;;;;;;27.02;48.26;99069.38;1820997;77;21502;-55
2021/07/30 09:39:41;;;;;;;1.67;0.90;;;;;;;27.09;46.57;99066.16;1825300;77;21269;-55
2021/07/30 09:42:13;;;;;;;1.00;0.90;;;;;;;27.17;45.21;99067.93;1814716;77;20936;-55
2021/07/30 09:44:52;;;;;;;1.20;1.10;;;;;;;27.27;45.60;99066.23;1815187;77;21536;-52
2021/07/30 09:47:27;;;;;;;0.90;0.90;;;;;;;27.36;44.92;99060.90;1819821;77;20991;-55
2021/07/30 09:49:56;;;;;;;1.05;0.95;;;;;;;27.46;45.51;99050.38;1811360;77;21457;-52
2021/07/30 09:52:27;;;;;;;6.50;1.20;;;;;;;27.58;45.50;99064.00;1809610;77;21095;-55
2021/07/30 09:54:56;;;;;;;1.17;1.07;;;;;;;27.67;46.18;99065.56;1810700;77;21056;-61
2021/07/30 09:57:29;;;;;;;3.58;1.20;;;;;;;27.66;46.26;99065.77;1814693;77;21438;-58
2021/07/30 09:59:58;;;;;;;1.00;1.00;;;;;;;27.63;46.31;99064.27;1814904;77;20908;-56
2021/07/30 10:02:28;;;;;;;1.62;1.00;;;;;;;27.62;45.84;99063.94;1817964;77;21894;-56
2021/07/30 10:04:55;;;;;;;0.90;0.90;;;;;;;27.62;45.40;99058.41;1813366;77;21399;-60
2021/07/30 10:07:26;;;;;;;1.15;1.05;;;;;;;27.65;44.15;99055.75;1819939;77;21414;-59
2021/07/30 10:12:30;;;;;;;3.33;0.70;;;;;;;27.72;41.52;99058.07;1815661;77;20885;-58
2021/07/30 10:14:58;;;;;;;0.80;0.80;;;;;;;27.74;42.79;99055.94;1822480;77;21793;-58
2021/07/30 10:17:32;;;;;;;0.70;0.70;;;;;;;27.83;41.70;99049.20;1786628;77;21731;-59
2021/07/30 10:20:07;;;;;;;0.65;0.65;;;;;;;27.92;41.08;99054.91;1816839;77;20901;-59
2021/07/30 10:22:51;;;;;;;0.65;0.65;;;;;;;27.96;40.48;99054.00;1816159;77;21540;-56
2021/07/30 10:25:26;;;;;;;2.22;0.70;;;;;;;27.98;40.79;99046.36;1818247;77;20954;-55
2021/07/30 10:27:58;;;;;;;5.15;0.80;;;;;;;28.06;41.86;99051.73;1817160;77;21530;-59
2021/07/30 10:30:25;;;;;;;0.82;0.70;;;;;;;28.18;42.39;99046.83;1790502;77;20936;-59
2021/07/30 10:32:53;;;;;;;1.32;0.90;;;;;;;28.31;42.10;99046.06;1816851;77;20889;-58
2021/07/30 10:35:31;;;;;;;0.80;0.80;;;;;;;28.40;42.10;99053.67;1816594;77;20968;-59
2021/07/30 10:38:17;;;;;;;0.80;0.80;;;;;;;28.45;42.00;99053.37;1814199;77;20960;-56
2021/07/30 10:41:10;;;;;;;0.80;0.80;;;;;;;28.51;42.25;99048.38;1817041;77;21211;-54
2021/07/30 10:44:00;;;;;;;2.50;0.70;;;;;;;28.57;42.01;99043.44;1821970;77;21349;-58
2021/07/30 10:46:27;;;;;;;1.40;0.80;;;;;;;28.65;41.55;99038.77;1818569;77;21532;-56
2021/07/30 10:48:54;;;;;;;2.70;0.75;;;;;;;28.69;40.25;99037.28;1820032;77;21650;-58
2021/07/30 10:51:24;;;;;;;0.80;0.80;;;;;;;28.58;38.98;99031.27;1815316;77;21066;-62
2021/07/30 10:53:59;;;;;;;3.20;0.62;;;;;;;28.44;39.83;99043.35;1821333;77;21770;-58
2021/07/30 10:56:33;;;;;;;0.98;0.88;;;;;;;28.33;40.70;99037.56;1817526;77;21032;-60
2021/07/30 10:59:05;;;;;;;1.75;0.90;;;;;;;28.27;40.63;99036.97;1815247;77;21099;-58
2021/07/30 11:01:40;;;;;;;1.42;0.90;;;;;;;28.22;40.18;99031.54;1821040;77;20968;-56
2021/07/30 11:04:06;;;;;;;3.80;0.90;;;;;;;28.24;40.62;99029.96;1817275;77;21047;-55
2021/07/30 11:06:47;;;;;;;2.15;0.70;;;;;;;28.30;41.21;99024.98;1787273;77;21444;-62
2021/07/30 11:09:18;;;;;;;1.30;1.20;;;;;;;28.40;41.03;99028.23;1819898;77;21421;-57
2021/07/30 11:11:57;;;;;;;0.80;0.78;;;;;;;28.48;39.96;99016.98;1820842;77;21004;-60
2021/07/30 11:14:35;;;;;;;0.88;0.60;;;;;;;28.57;40.06;99015.75;1820448;77;21122;-60
2021/07/30 11:17:05;;;;;;;0.90;0.80;;;;;;;28.65;39.57;99011.94;1790332;77;20976;-62
2021/07/30 11:19:36;;;;;;;0.80;0.80;;;;;;;28.72;40.57;99017.49;1816854;77;22085;-62
2021/07/30 11:22:12;;;;;;;1.10;0.80;;;;;;;28.77;39.63;99017.21;1816744;77;21111;-64
2021/07/30 11:24:44;;;;;;;0.60;0.60;;;;;;;28.79;39.56;99015.63;1822555;77;21513;-60
2021/07/30 11:27:12;;;;;;;1.50;0.70;;;;;;;28.84;39.15;99011.69;1820001;77;21091;-60
2021/07/30 11:29:48;;;;;;;0.60;0.60;;;;;;;28.86;39.69;99001.26;1821817;77;21022;-60
2021/07/30 11:32:16;;;;;;;0.70;0.70;;;;;;;28.90;39.44;99001.18;1827313;77;23266;-62
2021/07/30 11:34:46;;;;;;;1.00;0.70;;;;;;;28.93;39.07;98993.81;1818725;77;21025;-60
2021/07/30 11:37:17;;;;;;;0.93;0.60;;;;;;;28.97;37.71;98988.19;1822570;77;21050;-59
2021/07/30 11:39:47;;;;;;;1.47;0.60;;;;;;;29.02;38.18;98998.09;1816108;77;21592;-60
2021/07/30 11:42:30;;;;;;;0.60;0.60;;;;;;;29.00;37.36;98990.55;1825911;77;20948;-58
2021/07/30 11:45:01;;;;;;;0.70;0.65;;;;;;;28.99;36.90;98994.38;1792697;77;21135;-60